createdAt,value
2022-12-25T00:01:16.534Z,101506.69
2022-12-25T00:03:46.982Z,101504.81
2022-12-25T00:06:18.927Z,101510.25
2022-12-25T00:08:47.582Z,101495.13
2022-12-25T00:11:19.867Z,101510.16
2022-12-25T00:13:49.284Z,101515.59
2022-12-25T00:16:21.253Z,101508.25
2022-12-25T00:18:51.862Z,101511.31
2022-12-25T00:21:21.753Z,101512.16
2022-12-25T00:23:57.082Z,101509.91
2022-12-25T00:26:26.945Z,101501.59
2022-12-25T00:28:56.538Z,101497.69
2022-12-25T00:31:26.994Z,101498.28
2022-12-25T00:33:57.164Z,101512.81
2022-12-25T00:36:25.882Z,101496.72
2022-12-25T00:38:55.083Z,101502.47
2022-12-25T00:41:40.323Z,101495.50
2022-12-25T00:44:10.340Z,101508.28
2022-12-25T00:46:39.328Z,101500.59
2022-12-25T00:49:11.294Z,101514.09
2022-12-25T00:51:41.560Z,101518.78
2022-12-25T00:54:11.274Z,101524.63
2022-12-25T00:56:40.166Z,101521.06
2022-12-25T00:59:08.737Z,101523.50
2022-12-25T01:01:40.448Z,101523.59
2022-12-25T01:04:11.680Z,101526.41
2022-12-25T01:06:40.708Z,101534.63
2022-12-25T01:09:27.211Z,101530.25
2022-12-25T01:11:55.763Z,101517.84
2022-12-25T01:14:25.529Z,101519.72
2022-12-25T01:16:54.258Z,101525.69
2022-12-25T01:19:25.752Z,101536.56
2022-12-25T01:21:54.391Z,101520.34
2022-12-25T01:24:23.209Z,101530.53
2022-12-25T01:26:51.860Z,101525.47
2022-12-25T01:29:22.636Z,101536.53
2022-12-25T01:31:51.469Z,101534.50
2022-12-25T01:34:19.954Z,101523.16
2022-12-25T01:36:53.341Z,101523.53
2022-12-25T01:39:25.588Z,101537.59
2022-12-25T01:41:54.527Z,101523.19
2022-12-25T01:45:39.012Z,101527.66
2022-12-25T01:48:15.806Z,101521.00
2022-12-25T01:50:53.017Z,101526.78
2022-12-25T01:53:23.395Z,101528.31
2022-12-25T01:55:56.448Z,101516.13
2022-12-25T01:58:26.035Z,101504.91
2022-12-25T02:00:55.263Z,101521.63
2022-12-25T02:03:24.864Z,101519.78
2022-12-25T02:05:53.878Z,101524.31
2022-12-25T02:08:24.771Z,101520.41
2022-12-25T02:10:53.092Z,101534.88
2022-12-25T02:13:22.070Z,101533.19
2022-12-25T02:16:02.134Z,101526.63
2022-12-25T02:18:38.740Z,101528.66
2022-12-25T02:21:45.550Z,101521.69
2022-12-25T02:24:51.069Z,101515.47
2022-12-25T02:28:02.263Z,101513.03
2022-12-25T02:30:36.867Z,101508.63
2022-12-25T02:33:32.940Z,101512.59
2022-12-25T02:36:08.482Z,101517.81
2022-12-25T02:39:00.166Z,101514.84
2022-12-25T02:41:30.620Z,101510.28
2022-12-25T02:44:22.422Z,101494.19
2022-12-25T02:47:08.993Z,101511.00
2022-12-25T02:49:56.187Z,101506.72
2022-12-25T02:52:44.321Z,101498.72
2022-12-25T02:55:34.828Z,101490.94
2022-12-25T02:58:28.409Z,101486.31
2022-12-25T03:01:24.103Z,101492.03
2022-12-25T03:04:14.148Z,101481.03
2022-12-25T03:06:44.314Z,101470.09
2022-12-25T03:09:34.422Z,101471.97
2022-12-25T03:12:11.174Z,101461.63
2022-12-25T03:14:59.419Z,101461.34
2022-12-25T03:17:30.461Z,101459.75
2022-12-25T03:20:17.352Z,101449.47
2022-12-25T03:23:04.921Z,101458.47
2022-12-25T03:25:50.993Z,101458.16
2022-12-25T03:28:19.582Z,101452.00
2022-12-25T03:31:14.141Z,101465.63
2022-12-25T03:34:30.756Z,101468.97
2022-12-25T03:37:25.959Z,101472.41
2022-12-25T03:40:22.604Z,101479.69
2022-12-25T03:43:16.903Z,101483.06
2022-12-25T03:46:09.283Z,101481.69
2022-12-25T03:49:01.277Z,101481.84
2022-12-25T03:51:54.338Z,101478.06
2022-12-25T03:54:45.442Z,101466.78
2022-12-25T03:57:32.894Z,101456.91
2022-12-25T04:00:23.885Z,101456.75
2022-12-25T04:03:09.678Z,101468.94
2022-12-25T04:05:55.651Z,101451.63
2022-12-25T04:08:43.001Z,101447.16
2022-12-25T04:11:29.034Z,101442.22
2022-12-25T04:14:23.278Z,101447.44
2022-12-25T04:17:09.079Z,101439.81
2022-12-25T04:19:54.649Z,101433.22
2022-12-25T04:22:51.980Z,101448.47
2022-12-25T04:25:39.438Z,101463.88
2022-12-25T04:28:25.295Z,101465.38
2022-12-25T04:31:11.727Z,101457.19
2022-12-25T04:33:57.719Z,101459.78
2022-12-25T04:36:26.207Z,101450.53
2022-12-25T04:38:54.697Z,101445.63
2022-12-25T04:41:24.421Z,101461.47
2022-12-25T04:43:52.943Z,101451.16
2022-12-25T04:46:21.412Z,101465.63
2022-12-25T04:48:49.881Z,101464.16
2022-12-25T04:51:20.657Z,101461.63
2022-12-25T04:53:50.868Z,101446.81
2022-12-25T04:56:20.746Z,101453.41
2022-12-25T04:58:50.694Z,101453.22
2022-12-25T05:01:19.290Z,101449.09
2022-12-25T05:03:47.793Z,101438.19
2022-12-25T05:06:16.316Z,101445.44
2022-12-25T05:08:44.864Z,101442.13
2022-12-25T05:11:16.832Z,101435.75
2022-12-25T05:13:45.838Z,101432.56
2022-12-25T05:16:18.340Z,101439.28
2022-12-25T05:18:49.325Z,101438.16
2022-12-25T05:21:18.095Z,101433.66
2022-12-25T05:23:49.589Z,101428.88
2022-12-25T05:26:21.096Z,101413.16
2022-12-25T05:28:50.451Z,101428.63
2022-12-25T05:31:21.435Z,101413.88
2022-12-25T05:33:53.025Z,101425.19
2022-12-25T05:36:21.879Z,101413.31
2022-12-25T05:38:51.112Z,101406.97
2022-12-25T05:41:20.015Z,101411.94
2022-12-25T05:43:48.797Z,101401.47
2022-12-25T05:46:18.004Z,101411.22
2022-12-25T05:48:48.416Z,101410.38
2022-12-25T05:51:20.146Z,101389.66
2022-12-25T05:53:48.859Z,101395.94
2022-12-25T05:56:17.169Z,101399.19
2022-12-25T05:58:45.701Z,101403.41
2022-12-25T06:01:17.922Z,101398.19
2022-12-25T06:03:49.098Z,101392.78
2022-12-25T06:06:17.522Z,101400.97
2022-12-25T06:08:46.174Z,101395.88
2022-12-25T06:11:17.031Z,101382.59
2022-12-25T06:13:45.498Z,101370.16
2022-12-25T06:16:14.439Z,101379.22
2022-12-25T06:18:45.859Z,101377.13
2022-12-25T06:21:20.079Z,101370.50
2022-12-25T06:23:49.437Z,101363.22
2022-12-25T06:26:23.392Z,101366.44
2022-12-25T06:28:52.328Z,101368.09
2022-12-25T06:31:24.218Z,101367.88
2022-12-25T06:33:53.246Z,101373.78
2022-12-25T06:36:25.818Z,101368.09
2022-12-25T06:39:01.674Z,101368.91
2022-12-25T06:41:32.063Z,101360.59
2022-12-25T06:44:02.673Z,101361.44
2022-12-25T06:46:32.220Z,101359.34
2022-12-25T06:49:01.638Z,101342.09
2022-12-25T06:51:33.296Z,101351.31
2022-12-25T06:54:04.022Z,101356.59
2022-12-25T06:56:34.327Z,101348.97
2022-12-25T06:59:05.731Z,101350.06
2022-12-25T07:01:39.011Z,101354.28
2022-12-25T07:04:13.380Z,101353.91
2022-12-25T07:06:44.226Z,101367.50
2022-12-25T07:09:13.060Z,101355.56
2022-12-25T07:11:41.440Z,101363.16
2022-12-25T07:14:21.824Z,101360.97
2022-12-25T07:16:52.655Z,101355.69
2022-12-25T07:19:21.154Z,101355.75
2022-12-25T07:21:50.985Z,101355.09
2022-12-25T07:24:21.644Z,101364.50
2022-12-25T07:26:53.319Z,101368.00
2022-12-25T07:29:22.045Z,101376.47
2022-12-25T07:31:51.338Z,101364.16
2022-12-25T07:34:20.648Z,101365.00
2022-12-25T07:36:50.875Z,101359.00
2022-12-25T07:39:19.507Z,101360.13
2022-12-25T07:41:48.873Z,101358.50
2022-12-25T07:44:19.646Z,101352.41
2022-12-25T07:46:48.596Z,101349.75
2022-12-25T07:49:17.280Z,101362.91
2022-12-25T07:51:45.687Z,101394.84
2022-12-25T07:54:15.908Z,101400.22
2022-12-25T07:56:44.548Z,101387.03
2022-12-25T07:59:13.087Z,101374.19
2022-12-25T08:01:41.564Z,101373.81
2022-12-25T08:04:11.760Z,101356.66
2022-12-25T08:06:40.987Z,101363.06
2022-12-25T08:09:11.621Z,101352.78
2022-12-25T08:11:47.054Z,101358.00
2022-12-25T08:14:17.253Z,101364.41
2022-12-25T08:16:47.400Z,101362.03
2022-12-25T08:19:16.293Z,101384.19
2022-12-25T08:21:45.073Z,101395.78
2022-12-25T08:24:13.451Z,101395.41
2022-12-25T08:26:43.430Z,101407.94
2022-12-25T08:29:12.671Z,101414.91
2022-12-25T08:31:46.463Z,101403.91
2022-12-25T08:34:15.846Z,101408.44
2022-12-25T08:36:44.631Z,101404.19
2022-12-25T08:39:15.104Z,101402.41
2022-12-25T08:41:45.993Z,101388.59
2022-12-25T08:44:15.059Z,101381.56
2022-12-25T08:46:44.445Z,101392.53
2022-12-25T08:49:13.619Z,101382.13
2022-12-25T08:51:42.438Z,101377.72
2022-12-25T08:54:11.282Z,101376.84
2022-12-25T08:56:40.195Z,101379.22
2022-12-25T08:59:11.849Z,101369.25
2022-12-25T09:01:41.127Z,101375.88
2022-12-25T09:04:10.337Z,101374.75
2022-12-25T09:06:39.772Z,101379.06
2022-12-25T09:09:11.609Z,101390.72
2022-12-25T09:11:40.405Z,101379.38
2022-12-25T09:14:10.911Z,101378.41
2022-12-25T09:16:39.892Z,101378.13
2022-12-25T09:19:08.781Z,101371.41
2022-12-25T09:21:37.906Z,101380.34
2022-12-25T09:24:07.400Z,101384.75
2022-12-25T09:26:35.983Z,101382.38
2022-12-25T09:29:04.655Z,101378.38
2022-12-25T09:31:34.931Z,101388.50
2022-12-25T09:34:03.712Z,101386.56
2022-12-25T09:36:35.587Z,101390.97
2022-12-25T09:39:05.044Z,101392.19
2022-12-25T09:41:39.475Z,101397.13
2022-12-25T09:44:12.582Z,101401.88
2022-12-25T09:46:53.276Z,101392.78
2022-12-25T09:49:29.497Z,101391.63
2022-12-25T09:52:04.366Z,101376.56
2022-12-25T09:54:43.547Z,101394.47
2022-12-25T09:57:15.321Z,101383.06
2022-12-25T09:59:47.682Z,101391.94
2022-12-25T10:03:07.688Z,101391.69
2022-12-25T10:05:57.062Z,101385.53
2022-12-25T10:08:59.596Z,101364.22
2022-12-25T10:11:44.581Z,101372.66
2022-12-25T10:14:26.902Z,101382.38
2022-12-25T10:17:12.986Z,101376.94
2022-12-25T10:19:52.045Z,101378.22
2022-12-25T10:22:28.690Z,101371.50
2022-12-25T10:25:00.142Z,101367.47
2022-12-25T10:27:33.686Z,101372.19
2022-12-25T10:30:14.491Z,101380.16
2022-12-25T10:32:48.920Z,101364.97
2022-12-25T10:35:27.704Z,101354.00
2022-12-25T10:38:04.268Z,101349.69
2022-12-25T10:40:45.593Z,101336.47
2022-12-25T10:43:20.033Z,101335.84
2022-12-25T10:45:51.121Z,101315.03
2022-12-25T10:48:26.583Z,101330.56
2022-12-25T10:50:57.891Z,101322.81
2022-12-25T10:53:32.398Z,101315.59
2022-12-25T10:56:04.370Z,101304.63
2022-12-25T10:58:35.341Z,101287.38
2022-12-25T11:01:06.896Z,101289.97
2022-12-25T11:03:39.298Z,101292.00
2022-12-25T11:06:25.575Z,101286.09
2022-12-25T11:09:01.398Z,101282.75
2022-12-25T11:11:31.347Z,101282.41
2022-12-25T11:14:03.434Z,101287.22
2022-12-25T11:16:36.552Z,101277.72
2022-12-25T11:19:24.045Z,101274.81
2022-12-25T11:21:56.879Z,101269.56
2022-12-25T11:24:30.528Z,101268.59
2022-12-25T11:27:02.863Z,101268.69
2022-12-25T11:29:45.161Z,101253.25
2022-12-25T11:32:23.958Z,101254.81
2022-12-25T11:34:54.816Z,101243.28
2022-12-25T11:37:32.085Z,101233.13
2022-12-25T11:40:01.256Z,101235.91
2022-12-25T11:42:37.749Z,101214.69
2022-12-25T11:45:12.612Z,101218.81
2022-12-25T11:47:47.380Z,101217.03
2022-12-25T11:50:27.060Z,101208.66
2022-12-25T11:53:01.272Z,101222.56
2022-12-25T11:55:41.191Z,101205.06
2022-12-25T11:58:19.648Z,101194.41
2022-12-25T12:00:51.521Z,101202.56
2022-12-25T12:03:27.183Z,101209.13
2022-12-25T12:06:00.456Z,101201.97
2022-12-25T12:08:32.941Z,101214.31
2022-12-25T12:11:20.121Z,101210.66
2022-12-25T12:14:21.069Z,101213.34
2022-12-25T12:16:50.314Z,101205.69
2022-12-25T12:19:35.082Z,101201.88
2022-12-25T12:22:05.783Z,101190.22
2022-12-25T12:24:40.320Z,101191.72
2022-12-25T12:27:26.616Z,101187.41
2022-12-25T12:30:01.610Z,101173.78
2022-12-25T12:32:49.575Z,101169.31
2022-12-25T12:35:29.061Z,101171.28
2022-12-25T12:38:01.222Z,101164.69
2022-12-25T12:40:37.640Z,101181.13
2022-12-25T12:43:08.892Z,101173.06
2022-12-25T12:45:39.685Z,101165.22
2022-12-25T12:48:17.733Z,101168.28
2022-12-25T12:50:46.733Z,101170.41
2022-12-25T12:53:32.279Z,101171.53
2022-12-25T12:56:15.305Z,101160.28
2022-12-25T12:58:50.094Z,101148.44
2022-12-25T13:01:54.722Z,101165.13
2022-12-25T13:04:53.784Z,101156.91
2022-12-25T13:07:48.645Z,101139.84
2022-12-25T13:10:30.837Z,101136.13
2022-12-25T13:13:06.285Z,101129.38
2022-12-25T13:15:36.447Z,101142.97
2022-12-25T13:18:08.046Z,101135.88
2022-12-25T13:20:47.023Z,101120.56
2022-12-25T13:23:27.889Z,101123.19
2022-12-25T13:25:58.899Z,101105.56
2022-12-25T13:28:34.636Z,101107.34
2022-12-25T13:31:07.076Z,101108.88
2022-12-25T13:33:36.766Z,101105.97
2022-12-25T13:36:11.406Z,101108.50
2022-12-25T13:38:45.219Z,101102.91
2022-12-25T13:41:38.071Z,101115.75
2022-12-25T13:44:20.706Z,101106.47
2022-12-25T13:46:49.540Z,101120.97
2022-12-25T13:49:20.720Z,101126.31
2022-12-25T13:51:51.626Z,101121.63
2022-12-25T13:54:20.817Z,101127.25
2022-12-25T13:56:51.983Z,101136.22
2022-12-25T13:59:26.810Z,101132.47
2022-12-25T14:01:57.825Z,101130.09
2022-12-25T14:04:26.731Z,101123.75
2022-12-25T14:06:55.452Z,101126.22
2022-12-25T14:09:24.511Z,101119.44
2022-12-25T14:11:54.838Z,101112.13
2022-12-25T14:14:26.853Z,101115.56
2022-12-25T14:17:01.298Z,101111.38
2022-12-25T14:19:32.694Z,101122.91
2022-12-25T14:22:04.634Z,101125.22
2022-12-25T14:24:35.827Z,101110.75
2022-12-25T14:27:18.192Z,101119.06
2022-12-25T14:29:50.603Z,101114.44
2022-12-25T14:32:22.832Z,101111.19
2022-12-25T14:34:56.438Z,101115.25
2022-12-25T14:37:30.896Z,101100.31
2022-12-25T14:40:05.197Z,101106.53
2022-12-25T14:42:37.675Z,101117.34
2022-12-25T14:45:27.780Z,101110.78
2022-12-25T14:48:00.578Z,101113.28
2022-12-25T14:50:33.446Z,101102.97
2022-12-25T14:53:04.663Z,101090.00
2022-12-25T14:55:33.789Z,101097.94
2022-12-25T14:58:07.899Z,101094.44
2022-12-25T15:00:40.425Z,101085.84
2022-12-25T15:03:24.805Z,101082.88
2022-12-25T15:06:01.726Z,101081.56
2022-12-25T15:08:33.245Z,101090.41
2022-12-25T15:11:05.892Z,101093.72
2022-12-25T15:13:36.850Z,101097.75
2022-12-25T15:16:15.691Z,101104.22
2022-12-25T15:18:46.952Z,101109.59
2022-12-25T15:21:19.618Z,101114.13
2022-12-25T15:23:48.484Z,101118.22
2022-12-25T15:26:17.877Z,101120.78
2022-12-25T15:28:46.988Z,101108.69
2022-12-25T15:31:25.211Z,101105.78
2022-12-25T15:33:55.259Z,101104.09
2022-12-25T15:36:25.065Z,101113.84
2022-12-25T15:38:54.842Z,101096.94
2022-12-25T15:41:46.475Z,101094.25
2022-12-25T15:44:15.346Z,101098.06
2022-12-25T15:46:46.221Z,101091.59
2022-12-25T15:49:18.691Z,101094.00
2022-12-25T15:51:48.350Z,101082.41
2022-12-25T15:54:17.089Z,101093.50
2022-12-25T15:56:51.166Z,101080.16
2022-12-25T15:59:21.524Z,101083.78
2022-12-25T16:01:54.334Z,101083.09
2022-12-25T16:04:24.923Z,101083.28
2022-12-25T16:06:55.635Z,101088.88
2022-12-25T16:09:24.485Z,101079.22
2022-12-25T16:11:53.633Z,101069.41
2022-12-25T16:14:23.543Z,101082.44
2022-12-25T16:16:54.375Z,101083.28
2022-12-25T16:19:23.299Z,101069.78
2022-12-25T16:21:52.080Z,101083.63
2022-12-25T16:24:20.553Z,101081.88
2022-12-25T16:26:49.222Z,101066.81
2022-12-25T16:29:18.596Z,101065.09
2022-12-25T16:31:47.262Z,101049.72
2022-12-25T16:34:19.795Z,101068.91
2022-12-25T16:36:48.283Z,101058.88
2022-12-25T16:39:16.864Z,101054.00
2022-12-25T16:41:45.518Z,101064.94
2022-12-25T16:44:14.994Z,101067.97
2022-12-25T16:46:45.479Z,101049.19
2022-12-25T16:49:14.084Z,101048.50
2022-12-25T16:51:44.381Z,101044.66
2022-12-25T16:54:12.915Z,101054.53
2022-12-25T16:56:41.642Z,101044.63
2022-12-25T16:59:10.511Z,101035.94
2022-12-25T17:01:44.279Z,101057.56
2022-12-25T17:04:15.419Z,101041.84
2022-12-25T17:06:47.681Z,101038.75
2022-12-25T17:09:16.410Z,101031.69
2022-12-25T17:11:45.003Z,101046.06
2022-12-25T17:14:16.344Z,101039.81
2022-12-25T17:16:45.572Z,101051.09
2022-12-25T17:19:20.617Z,101059.31
2022-12-25T17:21:57.536Z,101059.41
2022-12-25T17:24:30.886Z,101059.22
2022-12-25T17:27:01.109Z,101055.84
2022-12-25T17:29:33.040Z,101056.81
2022-12-25T17:32:01.835Z,101061.66
2022-12-25T17:34:30.813Z,101050.41
2022-12-25T17:37:01.048Z,101059.59
2022-12-25T17:39:29.901Z,101058.88
2022-12-25T17:41:58.878Z,101044.16
2022-12-25T17:44:28.068Z,101032.31
2022-12-25T17:46:57.533Z,101035.88
2022-12-25T17:49:26.878Z,101038.06
2022-12-25T17:51:55.642Z,101046.09
2022-12-25T17:54:25.900Z,101061.50
2022-12-25T17:56:54.854Z,101053.56
2022-12-25T17:59:29.000Z,101047.47
2022-12-25T18:01:58.205Z,101049.72
2022-12-25T18:04:27.274Z,101043.13
2022-12-25T18:06:56.187Z,101041.59
2022-12-25T18:09:26.181Z,101033.38
2022-12-25T18:11:55.083Z,101024.56
2022-12-25T18:14:23.786Z,101024.66
2022-12-25T18:16:52.986Z,101028.53
2022-12-25T18:19:22.839Z,101022.28
2022-12-25T18:21:52.652Z,101025.41
2022-12-25T18:24:23.052Z,101022.56
2022-12-25T18:26:53.713Z,101018.00
2022-12-25T18:29:23.177Z,101024.34
2022-12-25T18:31:54.319Z,101020.13
2022-12-25T18:34:23.505Z,101009.69
2022-12-25T18:36:52.008Z,101013.22
2022-12-25T18:39:21.139Z,101031.31
2022-12-25T18:42:07.576Z,101028.38
2022-12-25T18:44:38.479Z,101054.91
2022-12-25T18:47:07.368Z,101049.09
2022-12-25T18:49:36.697Z,101063.28
2022-12-25T18:52:49.712Z,101068.94
2022-12-25T18:55:07.666Z,101058.91
2022-12-25T18:57:41.161Z,101057.69
2022-12-25T19:00:15.748Z,101051.22
2022-12-25T19:02:45.515Z,101051.44
2022-12-25T19:05:16.856Z,101045.66
2022-12-25T19:07:47.475Z,101052.59
2022-12-25T19:10:16.988Z,101034.41
2022-12-25T19:12:46.696Z,101033.63
2022-12-25T19:15:20.299Z,101034.47
2022-12-25T19:17:50.880Z,101034.50
2022-12-25T19:20:21.360Z,101042.13
2022-12-25T19:22:50.845Z,101040.72
2022-12-25T19:25:20.568Z,101034.75
2022-12-25T19:27:54.570Z,101045.09
2022-12-25T19:30:26.033Z,101051.19
2022-12-25T19:33:01.795Z,101037.44
2022-12-25T19:35:34.181Z,101028.78
2022-12-25T19:38:09.907Z,101034.66
2022-12-25T19:40:40.665Z,101032.41
2022-12-25T19:43:12.693Z,101041.22
2022-12-25T19:45:56.376Z,101039.00
2022-12-25T19:48:31.275Z,101027.91
2022-12-25T19:51:03.851Z,101035.28
2022-12-25T19:53:36.433Z,101049.72
2022-12-25T19:56:10.651Z,101052.66
2022-12-25T19:58:43.008Z,101064.56
2022-12-25T20:01:17.985Z,101048.13
2022-12-25T20:03:49.603Z,101058.50
2022-12-25T20:06:26.495Z,101060.66
2022-12-25T20:08:57.775Z,101050.63
2022-12-25T20:11:30.003Z,101063.19
2022-12-25T20:14:04.317Z,101048.72
2022-12-25T20:16:39.094Z,101050.28
2022-12-25T20:19:16.119Z,101049.13
2022-12-25T20:21:47.435Z,101043.47
2022-12-25T20:24:18.119Z,101040.78
2022-12-25T20:26:48.065Z,101052.28
2022-12-25T20:29:20.751Z,101044.09
2022-12-25T20:31:51.747Z,101036.19
2022-12-25T20:34:24.639Z,101033.50
2022-12-25T20:36:54.012Z,101033.31
2022-12-25T20:39:26.300Z,101040.16
2022-12-25T20:41:55.853Z,101036.38
2022-12-25T20:44:25.486Z,101037.59
2022-12-25T20:47:04.198Z,101039.06
2022-12-25T20:49:36.458Z,101048.22
2022-12-25T20:52:07.654Z,101045.88
2022-12-25T20:54:38.087Z,101045.72
2022-12-25T20:57:10.362Z,101051.06
2022-12-25T20:59:44.259Z,101041.66
2022-12-25T21:02:35.337Z,101037.94
2022-12-25T21:05:05.797Z,101039.81
2022-12-25T21:07:35.914Z,101040.84
2022-12-25T21:10:07.655Z,101042.81
2022-12-25T21:12:39.923Z,101049.78
2022-12-25T21:15:15.667Z,101049.00
2022-12-25T21:17:51.687Z,101052.38
2022-12-25T21:20:28.285Z,101056.28
2022-12-25T21:23:03.813Z,101052.03
2022-12-25T21:25:33.954Z,101070.19
2022-12-25T21:28:03.252Z,101073.78
2022-12-25T21:30:32.067Z,101069.94
2022-12-25T21:33:19.946Z,101075.13
2022-12-25T21:35:48.832Z,101073.25
2022-12-25T21:38:17.805Z,101071.84
2022-12-25T21:40:46.951Z,101076.03
2022-12-25T21:43:17.964Z,101077.50
2022-12-25T21:45:48.160Z,101078.88
2022-12-25T21:48:18.232Z,101081.88
2022-12-25T21:51:04.119Z,101077.91
2022-12-25T21:53:32.833Z,101080.31
2022-12-25T21:56:03.097Z,101081.56
2022-12-25T21:58:31.887Z,101086.22
2022-12-25T22:01:04.426Z,101084.31
2022-12-25T22:03:35.060Z,101090.38
2022-12-25T22:06:21.837Z,101082.22
2022-12-25T22:08:53.786Z,101083.34
2022-12-25T22:11:39.879Z,101095.38
2022-12-25T22:14:51.558Z,101097.97
2022-12-25T22:17:41.575Z,101094.69
2022-12-25T22:20:15.540Z,101094.69
2022-12-25T22:22:44.578Z,101091.94
2022-12-25T22:25:14.787Z,101087.25
2022-12-25T22:27:46.292Z,101075.75
2022-12-25T22:30:17.946Z,101079.13
2022-12-25T22:32:50.679Z,101089.56
2022-12-25T22:35:21.885Z,101088.28
2022-12-25T22:37:50.768Z,101091.75
2022-12-25T22:40:21.382Z,101097.75
2022-12-25T22:42:49.884Z,101087.41
2022-12-25T22:45:18.762Z,101083.34
2022-12-25T22:47:47.356Z,101074.00
2022-12-25T22:50:16.714Z,101066.81
2022-12-25T22:52:47.336Z,101074.72
2022-12-25T22:55:19.548Z,101064.56
2022-12-25T22:57:49.270Z,101057.31
2022-12-25T23:00:18.234Z,101047.59
2022-12-25T23:02:47.119Z,101046.94
2022-12-25T23:05:16.156Z,101041.41
2022-12-25T23:07:46.105Z,101050.41
2022-12-25T23:10:14.869Z,101066.84
2022-12-25T23:13:00.812Z,101063.13
2022-12-25T23:15:29.487Z,101072.19
2022-12-25T23:18:15.461Z,101068.31
2022-12-25T23:21:01.513Z,101064.41
2022-12-25T23:23:49.051Z,101059.72
2022-12-25T23:26:19.727Z,101055.94
2022-12-25T23:29:14.607Z,101056.09
2022-12-25T23:31:43.904Z,101051.53
2022-12-25T23:34:12.693Z,101047.38
2022-12-25T23:36:41.112Z,101052.81
2022-12-25T23:39:11.045Z,101031.81
2022-12-25T23:41:40.428Z,101051.94
2022-12-25T23:44:10.477Z,101064.94
2022-12-25T23:46:39.664Z,101076.88
2022-12-25T23:49:09.809Z,101074.94
2022-12-25T23:51:43.105Z,101070.03
2022-12-25T23:54:16.082Z,101073.47
2022-12-25T23:56:45.012Z,101072.13
2022-12-25T23:59:14.271Z,101080.19
